<?xml version="1.0" encoding="UTF-8" standalone="no" ?>
<gpx xmlns="http://www.topografix.com/GPX/1/1" xmlns:xsi="http://www.w3.org/2001/XMLSchema-instance" xsi:schemaLocation="http://www.topografix.com/GPX/1/1 http://www.topografix.com/GPX/1/1/gpx.xsd" version="1.1" creator="VisuGPX - https://www.visugpx.com">
  <metadata>
    <name>GR653 De Toulouse (Haute-Garonne) à Auch (Gers) (2019)</name>
    <desc><![CDATA[
Total: 29.7km]]></desc>
  </metadata>
  <trk>
    <name><![CDATA[GR653 De Toulouse (Haute-Garonne) à Auch (Gers) (2019)]]></name>
    <desc><![CDATA[Total: 29.7km]]></desc>
    <trkseg>
      <trkpt lat="43.62532" lon="0.8705">
        <ele>146.482</ele>
        <time>2016-12-30T14:18:05Z</time>
      </trkpt>
      <trkpt lat="43.62573" lon="0.86885">
        <ele>145.015</ele>
        <time>2016-12-30T14:18:25Z</time>
      </trkpt>
      <trkpt lat="43.62571" lon="0.86812">
        <ele>145.019</ele>
        <time>2016-12-30T14:18:45Z</time>
      </trkpt>
      <trkpt lat="43.62736" lon="0.86862">
        <ele>145.099</ele>
        <time>2016-12-30T14:19:05Z</time>
      </trkpt>
      <trkpt lat="43.62764" lon="0.86846">
        <ele>145.007</ele>
        <time>2016-12-30T14:19:25Z</time>
      </trkpt>
      <trkpt lat="43.62822" lon="0.86868">
        <ele>145.027</ele>
        <time>2016-12-30T14:19:45Z</time>
      </trkpt>
      <trkpt lat="43.62958" lon="0.86954">
        <ele>145.008</ele>
        <time>2016-12-30T14:20:05Z</time>
      </trkpt>
      <trkpt lat="43.63006" lon="0.8677">
        <ele>145.083</ele>
        <time>2016-12-30T14:20:25Z</time>
      </trkpt>
      <trkpt lat="43.63094" lon="0.86496">
        <ele>149.083</ele>
        <time>2016-12-30T14:20:45Z</time>
      </trkpt>
      <trkpt lat="43.63117" lon="0.86459">
        <ele>149.96</ele>
        <time>2016-12-30T14:21:05Z</time>
      </trkpt>
      <trkpt lat="43.631" lon="0.86423">
        <ele>152.144</ele>
        <time>2016-12-30T14:21:25Z</time>
      </trkpt>
      <trkpt lat="43.63057" lon="0.86396">
        <ele>150.626</ele>
        <time>2016-12-30T14:21:45Z</time>
      </trkpt>
      <trkpt lat="43.63021" lon="0.86333">
        <ele>151.313</ele>
        <time>2016-12-30T14:22:05Z</time>
      </trkpt>
      <trkpt lat="43.62975" lon="0.86062">
        <ele>154.736</ele>
        <time>2016-12-30T14:22:25Z</time>
      </trkpt>
      <trkpt lat="43.62983" lon="0.8599">
        <ele>156.19</ele>
        <time>2016-12-30T14:22:45Z</time>
      </trkpt>
      <trkpt lat="43.63041" lon="0.85738">
        <ele>160.567</ele>
        <time>2016-12-30T14:23:05Z</time>
      </trkpt>
      <trkpt lat="43.6301" lon="0.8558">
        <ele>159.981</ele>
        <time>2016-12-30T14:23:25Z</time>
      </trkpt>
      <trkpt lat="43.63006" lon="0.85488">
        <ele>159.619</ele>
        <time>2016-12-30T14:23:45Z</time>
      </trkpt>
      <trkpt lat="43.62932" lon="0.85418">
        <ele>165.308</ele>
        <time>2016-12-30T14:24:05Z</time>
      </trkpt>
      <trkpt lat="43.62838" lon="0.85378">
        <ele>178.08</ele>
        <time>2016-12-30T14:24:25Z</time>
      </trkpt>
      <trkpt lat="43.62809" lon="0.85294">
        <ele>179.76</ele>
        <time>2016-12-30T14:24:45Z</time>
      </trkpt>
      <trkpt lat="43.62711" lon="0.85271">
        <ele>193.147</ele>
        <time>2016-12-30T14:25:05Z</time>
      </trkpt>
      <trkpt lat="43.62705" lon="0.85146">
        <ele>194.931</ele>
        <time>2016-12-30T14:25:25Z</time>
      </trkpt>
      <trkpt lat="43.6266" lon="0.85059">
        <ele>195.323</ele>
        <time>2016-12-30T14:25:45Z</time>
      </trkpt>
      <trkpt lat="43.62626" lon="0.84947">
        <ele>198.89</ele>
        <time>2016-12-30T14:26:05Z</time>
      </trkpt>
      <trkpt lat="43.6259" lon="0.84754">
        <ele>205.063</ele>
        <time>2016-12-30T14:26:25Z</time>
      </trkpt>
      <trkpt lat="43.62657" lon="0.84511">
        <ele>208.367</ele>
        <time>2016-12-30T14:26:45Z</time>
      </trkpt>
      <trkpt lat="43.62409" lon="0.84115">
        <ele>204.539</ele>
        <time>2016-12-30T14:27:05Z</time>
      </trkpt>
      <trkpt lat="43.62335" lon="0.83925">
        <ele>182.801</ele>
        <time>2016-12-30T14:27:25Z</time>
      </trkpt>
      <trkpt lat="43.62241" lon="0.83728">
        <ele>170.121</ele>
        <time>2016-12-30T14:27:45Z</time>
      </trkpt>
      <trkpt lat="43.62215" lon="0.83558">
        <ele>175.408</ele>
        <time>2016-12-30T14:28:05Z</time>
      </trkpt>
      <trkpt lat="43.62162" lon="0.83395">
        <ele>184.577</ele>
        <time>2016-12-30T14:28:25Z</time>
      </trkpt>
      <trkpt lat="43.62128" lon="0.83334">
        <ele>188.227</ele>
        <time>2016-12-30T14:28:45Z</time>
      </trkpt>
      <trkpt lat="43.62069" lon="0.83112">
        <ele>201.594</ele>
        <time>2016-12-30T14:29:05Z</time>
      </trkpt>
      <trkpt lat="43.62032" lon="0.82844">
        <ele>219.768</ele>
        <time>2016-12-30T14:29:25Z</time>
      </trkpt>
      <trkpt lat="43.62054" lon="0.82771">
        <ele>219.97</ele>
        <time>2016-12-30T14:29:45Z</time>
      </trkpt>
      <trkpt lat="43.62022" lon="0.82089">
        <ele>198.547</ele>
        <time>2016-12-30T14:30:05Z</time>
      </trkpt>
      <trkpt lat="43.62032" lon="0.81959">
        <ele>195.29</ele>
        <time>2016-12-30T14:30:25Z</time>
      </trkpt>
      <trkpt lat="43.62067" lon="0.81863">
        <ele>195.044</ele>
        <time>2016-12-30T14:30:45Z</time>
      </trkpt>
      <trkpt lat="43.621" lon="0.81817">
        <ele>195.054</ele>
        <time>2016-12-30T14:31:05Z</time>
      </trkpt>
      <trkpt lat="43.62084" lon="0.81778">
        <ele>195.056</ele>
        <time>2016-12-30T14:31:25Z</time>
      </trkpt>
      <trkpt lat="43.62099" lon="0.8149">
        <ele>207.611</ele>
        <time>2016-12-30T14:31:45Z</time>
      </trkpt>
      <trkpt lat="43.62116" lon="0.81365">
        <ele>211.308</ele>
        <time>2016-12-30T14:32:05Z</time>
      </trkpt>
      <trkpt lat="43.62106" lon="0.81005">
        <ele>230.189</ele>
        <time>2016-12-30T14:32:25Z</time>
      </trkpt>
      <trkpt lat="43.6208" lon="0.80913">
        <ele>227.869</ele>
        <time>2016-12-30T14:32:45Z</time>
      </trkpt>
      <trkpt lat="43.61959" lon="0.80785">
        <ele>218.676</ele>
        <time>2016-12-30T14:33:05Z</time>
      </trkpt>
      <trkpt lat="43.6184" lon="0.80559">
        <ele>226.44</ele>
        <time>2016-12-30T14:33:25Z</time>
      </trkpt>
      <trkpt lat="43.61801" lon="0.80358">
        <ele>232.762</ele>
        <time>2016-12-30T14:33:45Z</time>
      </trkpt>
      <trkpt lat="43.61916" lon="0.79832">
        <ele>219.959</ele>
        <time>2016-12-30T14:34:05Z</time>
      </trkpt>
      <trkpt lat="43.61973" lon="0.79622">
        <ele>216.452</ele>
        <time>2016-12-30T14:34:25Z</time>
      </trkpt>
      <trkpt lat="43.6198" lon="0.79495">
        <ele>212.476</ele>
        <time>2016-12-30T14:34:45Z</time>
      </trkpt>
      <trkpt lat="43.61977" lon="0.79486">
        <ele>211.826</ele>
        <time>2016-12-30T14:35:05Z</time>
      </trkpt>
      <trkpt lat="43.61934" lon="0.79282">
        <ele>200.147</ele>
        <time>2016-12-30T14:35:25Z</time>
      </trkpt>
      <trkpt lat="43.61932" lon="0.79138">
        <ele>196.811</ele>
        <time>2016-12-30T14:35:45Z</time>
      </trkpt>
      <trkpt lat="43.62024" lon="0.78588">
        <ele>195.308</ele>
        <time>2016-12-30T14:36:05Z</time>
      </trkpt>
      <trkpt lat="43.62022" lon="0.78336">
        <ele>195.696</ele>
        <time>2016-12-30T14:36:25Z</time>
      </trkpt>
      <trkpt lat="43.61967" lon="0.78321">
        <ele>199.786</ele>
        <time>2016-12-30T14:36:45Z</time>
      </trkpt>
      <trkpt lat="43.61894" lon="0.78091">
        <ele>194.713</ele>
        <time>2016-12-30T14:37:05Z</time>
      </trkpt>
      <trkpt lat="43.61894" lon="0.78036">
        <ele>194.857</ele>
        <time>2016-12-30T14:37:25Z</time>
      </trkpt>
      <trkpt lat="43.61926" lon="0.7787">
        <ele>194.619</ele>
        <time>2016-12-30T14:37:45Z</time>
      </trkpt>
      <trkpt lat="43.61918" lon="0.77783">
        <ele>190.696</ele>
        <time>2016-12-30T14:38:05Z</time>
      </trkpt>
      <trkpt lat="43.61815" lon="0.7766">
        <ele>181.439</ele>
        <time>2016-12-30T14:38:25Z</time>
      </trkpt>
      <trkpt lat="43.61803" lon="0.77574">
        <ele>179.043</ele>
        <time>2016-12-30T14:38:45Z</time>
      </trkpt>
      <trkpt lat="43.61824" lon="0.77401">
        <ele>161.858</ele>
        <time>2016-12-30T14:39:05Z</time>
      </trkpt>
      <trkpt lat="43.61602" lon="0.77168">
        <ele>156.852</ele>
        <time>2016-12-30T14:39:25Z</time>
      </trkpt>
      <trkpt lat="43.61586" lon="0.77114">
        <ele>155.117</ele>
        <time>2016-12-30T14:39:45Z</time>
      </trkpt>
      <trkpt lat="43.61531" lon="0.77023">
        <ele>155.008</ele>
        <time>2016-12-30T14:40:05Z</time>
      </trkpt>
      <trkpt lat="43.61674" lon="0.76866">
        <ele>155.079</ele>
        <time>2016-12-30T14:40:25Z</time>
      </trkpt>
      <trkpt lat="43.61784" lon="0.76687">
        <ele>155.139</ele>
        <time>2016-12-30T14:40:45Z</time>
      </trkpt>
      <trkpt lat="43.61818" lon="0.76698">
        <ele>155.446</ele>
        <time>2016-12-30T14:41:05Z</time>
      </trkpt>
      <trkpt lat="43.61919" lon="0.76809">
        <ele>155.08</ele>
        <time>2016-12-30T14:41:25Z</time>
      </trkpt>
      <trkpt lat="43.62022" lon="0.76858">
        <ele>154.232</ele>
        <time>2016-12-30T14:41:45Z</time>
      </trkpt>
      <trkpt lat="43.62085" lon="0.76673">
        <ele>157.169</ele>
        <time>2016-12-30T14:42:05Z</time>
      </trkpt>
      <trkpt lat="43.62117" lon="0.76637">
        <ele>161.592</ele>
        <time>2016-12-30T14:42:25Z</time>
      </trkpt>
      <trkpt lat="43.6217" lon="0.76485">
        <ele>166.756</ele>
        <time>2016-12-30T14:42:45Z</time>
      </trkpt>
      <trkpt lat="43.62206" lon="0.76353">
        <ele>167.984</ele>
        <time>2016-12-30T14:43:05Z</time>
      </trkpt>
      <trkpt lat="43.62183" lon="0.76192">
        <ele>172.507</ele>
        <time>2016-12-30T14:43:25Z</time>
      </trkpt>
      <trkpt lat="43.62277" lon="0.75872">
        <ele>185.917</ele>
        <time>2016-12-30T14:43:45Z</time>
      </trkpt>
      <trkpt lat="43.62326" lon="0.75777">
        <ele>190.508</ele>
        <time>2016-12-30T14:44:05Z</time>
      </trkpt>
      <trkpt lat="43.62437" lon="0.75487">
        <ele>200.662</ele>
        <time>2016-12-30T14:44:25Z</time>
      </trkpt>
      <trkpt lat="43.6246" lon="0.75363">
        <ele>202.732</ele>
        <time>2016-12-30T14:44:45Z</time>
      </trkpt>
      <trkpt lat="43.6247" lon="0.75276">
        <ele>201.579</ele>
        <time>2016-12-30T14:45:05Z</time>
      </trkpt>
      <trkpt lat="43.62507" lon="0.75193">
        <ele>200.883</ele>
        <time>2016-12-30T14:45:25Z</time>
      </trkpt>
      <trkpt lat="43.6254" lon="0.75165">
        <ele>203.295</ele>
        <time>2016-12-30T14:45:45Z</time>
      </trkpt>
      <trkpt lat="43.62749" lon="0.74899">
        <ele>214.982</ele>
        <time>2016-12-30T14:46:05Z</time>
      </trkpt>
      <trkpt lat="43.62941" lon="0.74712">
        <ele>220.085</ele>
        <time>2016-12-30T14:46:25Z</time>
      </trkpt>
      <trkpt lat="43.62995" lon="0.74584">
        <ele>223.659</ele>
        <time>2016-12-30T14:46:45Z</time>
      </trkpt>
      <trkpt lat="43.63023" lon="0.74398">
        <ele>223.587</ele>
        <time>2016-12-30T14:47:05Z</time>
      </trkpt>
      <trkpt lat="43.63027" lon="0.74236">
        <ele>223.942</ele>
        <time>2016-12-30T14:47:25Z</time>
      </trkpt>
      <trkpt lat="43.62739" lon="0.7395">
        <ele>194.526</ele>
        <time>2016-12-30T14:47:45Z</time>
      </trkpt>
      <trkpt lat="43.62658" lon="0.73812">
        <ele>189.608</ele>
        <time>2016-12-30T14:48:05Z</time>
      </trkpt>
      <trkpt lat="43.6259" lon="0.73622">
        <ele>183.272</ele>
        <time>2016-12-30T14:48:25Z</time>
      </trkpt>
      <trkpt lat="43.62523" lon="0.73555">
        <ele>192.782</ele>
        <time>2016-12-30T14:48:45Z</time>
      </trkpt>
      <trkpt lat="43.62533" lon="0.73504">
        <ele>195.499</ele>
        <time>2016-12-30T14:49:05Z</time>
      </trkpt>
      <trkpt lat="43.62521" lon="0.73413">
        <ele>194.663</ele>
        <time>2016-12-30T14:49:25Z</time>
      </trkpt>
      <trkpt lat="43.62537" lon="0.73347">
        <ele>194.285</ele>
        <time>2016-12-30T14:49:45Z</time>
      </trkpt>
      <trkpt lat="43.6253" lon="0.73193">
        <ele>193.252</ele>
        <time>2016-12-30T14:50:05Z</time>
      </trkpt>
      <trkpt lat="43.62496" lon="0.73124">
        <ele>194.355</ele>
        <time>2016-12-30T14:50:25Z</time>
      </trkpt>
      <trkpt lat="43.62429" lon="0.72928">
        <ele>187.189</ele>
        <time>2016-12-30T14:50:45Z</time>
      </trkpt>
      <trkpt lat="43.62373" lon="0.72803">
        <ele>182.448</ele>
        <time>2016-12-30T14:51:05Z</time>
      </trkpt>
      <trkpt lat="43.62407" lon="0.72695">
        <ele>184.661</ele>
        <time>2016-12-30T14:51:25Z</time>
      </trkpt>
      <trkpt lat="43.62441" lon="0.72504">
        <ele>185.717</ele>
        <time>2016-12-30T14:51:45Z</time>
      </trkpt>
      <trkpt lat="43.6244" lon="0.72425">
        <ele>188.508</ele>
        <time>2016-12-30T14:52:05Z</time>
      </trkpt>
      <trkpt lat="43.6251" lon="0.72377">
        <ele>194.078</ele>
        <time>2016-12-30T14:52:25Z</time>
      </trkpt>
      <trkpt lat="43.62531" lon="0.7219">
        <ele>194.368</ele>
        <time>2016-12-30T14:52:45Z</time>
      </trkpt>
      <trkpt lat="43.6251" lon="0.71976">
        <ele>193.755</ele>
        <time>2016-12-30T14:53:05Z</time>
      </trkpt>
      <trkpt lat="43.62495" lon="0.71901">
        <ele>193.689</ele>
        <time>2016-12-30T14:53:25Z</time>
      </trkpt>
      <trkpt lat="43.62504" lon="0.71829">
        <ele>194.331</ele>
        <time>2016-12-30T14:53:45Z</time>
      </trkpt>
      <trkpt lat="43.6261" lon="0.7168">
        <ele>199.598</ele>
        <time>2016-12-30T14:54:05Z</time>
      </trkpt>
      <trkpt lat="43.62648" lon="0.71614">
        <ele>200.671</ele>
        <time>2016-12-30T14:54:25Z</time>
      </trkpt>
      <trkpt lat="43.62697" lon="0.71561">
        <ele>200.185</ele>
        <time>2016-12-30T14:54:45Z</time>
      </trkpt>
      <trkpt lat="43.62798" lon="0.71207">
        <ele>222.888</ele>
        <time>2016-12-30T14:55:05Z</time>
      </trkpt>
      <trkpt lat="43.62711" lon="0.71192">
        <ele>223.024</ele>
        <time>2016-12-30T14:55:25Z</time>
      </trkpt>
      <trkpt lat="43.62756" lon="0.70858">
        <ele>244.326</ele>
        <time>2016-12-30T14:55:45Z</time>
      </trkpt>
      <trkpt lat="43.6276" lon="0.70693">
        <ele>244.208</ele>
        <time>2016-12-30T14:56:05Z</time>
      </trkpt>
      <trkpt lat="43.62774" lon="0.70612">
        <ele>239.982</ele>
        <time>2016-12-30T14:56:25Z</time>
      </trkpt>
      <trkpt lat="43.62783" lon="0.70453">
        <ele>228.592</ele>
        <time>2016-12-30T14:56:45Z</time>
      </trkpt>
      <trkpt lat="43.62777" lon="0.70422">
        <ele>228.249</ele>
        <time>2016-12-30T14:57:05Z</time>
      </trkpt>
      <trkpt lat="43.62851" lon="0.69831">
        <ele>216.613</ele>
        <time>2016-12-30T14:57:25Z</time>
      </trkpt>
      <trkpt lat="43.62927" lon="0.69507">
        <ele>201.255</ele>
        <time>2016-12-30T14:57:45Z</time>
      </trkpt>
      <trkpt lat="43.6292" lon="0.6947">
        <ele>197.882</ele>
        <time>2016-12-30T14:58:05Z</time>
      </trkpt>
      <trkpt lat="43.62938" lon="0.69442">
        <ele>193.965</ele>
        <time>2016-12-30T14:58:25Z</time>
      </trkpt>
      <trkpt lat="43.62924" lon="0.69366">
        <ele>194.559</ele>
        <time>2016-12-30T14:58:45Z</time>
      </trkpt>
      <trkpt lat="43.62986" lon="0.69196">
        <ele>204.914</ele>
        <time>2016-12-30T14:59:05Z</time>
      </trkpt>
      <trkpt lat="43.63072" lon="0.69162">
        <ele>210.254</ele>
        <time>2016-12-30T14:59:25Z</time>
      </trkpt>
      <trkpt lat="43.63128" lon="0.6898">
        <ele>217.609</ele>
        <time>2016-12-30T14:59:45Z</time>
      </trkpt>
      <trkpt lat="43.63182" lon="0.68864">
        <ele>218.808</ele>
        <time>2016-12-30T15:00:05Z</time>
      </trkpt>
      <trkpt lat="43.63304" lon="0.68653">
        <ele>209.125</ele>
        <time>2016-12-30T15:00:25Z</time>
      </trkpt>
      <trkpt lat="43.63332" lon="0.68574">
        <ele>207.155</ele>
        <time>2016-12-30T15:00:45Z</time>
      </trkpt>
      <trkpt lat="43.63474" lon="0.68549">
        <ele>199.292</ele>
        <time>2016-12-30T15:01:05Z</time>
      </trkpt>
      <trkpt lat="43.63564" lon="0.68537">
        <ele>195.446</ele>
        <time>2016-12-30T15:01:25Z</time>
      </trkpt>
      <trkpt lat="43.63654" lon="0.68495">
        <ele>192.648</ele>
        <time>2016-12-30T15:01:45Z</time>
      </trkpt>
      <trkpt lat="43.63688" lon="0.68448">
        <ele>192.355</ele>
        <time>2019-02-28T20:05:46Z</time>
      </trkpt>
      <trkpt lat="43.63737" lon="0.68307">
        <ele>201.378</ele>
        <time>2019-02-28T20:06:06Z</time>
      </trkpt>
      <trkpt lat="43.6374" lon="0.68273">
        <ele>203.742</ele>
        <time>2019-02-28T20:06:26Z</time>
      </trkpt>
      <trkpt lat="43.63864" lon="0.68139">
        <ele>205.748</ele>
        <time>2019-02-28T20:33:26Z</time>
      </trkpt>
      <trkpt lat="43.63961" lon="0.67972">
        <ele>200.461</ele>
        <time>2019-02-28T20:33:46Z</time>
      </trkpt>
      <trkpt lat="43.64048" lon="0.67789">
        <ele>193.717</ele>
        <time>2019-02-28T20:34:06Z</time>
      </trkpt>
      <trkpt lat="43.64083" lon="0.67655">
        <ele>186.608</ele>
        <time>2019-02-28T20:34:26Z</time>
      </trkpt>
      <trkpt lat="43.64114" lon="0.67601">
        <ele>180.958</ele>
        <time>2019-02-28T20:34:46Z</time>
      </trkpt>
      <trkpt lat="43.6414" lon="0.67511">
        <ele>172.618</ele>
        <time>2019-02-28T20:35:06Z</time>
      </trkpt>
      <trkpt lat="43.64185" lon="0.67438">
        <ele>165.085</ele>
        <time>2019-02-28T20:35:26Z</time>
      </trkpt>
      <trkpt lat="43.64201" lon="0.67316">
        <ele>165.049</ele>
        <time>2019-02-28T20:35:46Z</time>
      </trkpt>
      <trkpt lat="43.64222" lon="0.67039">
        <ele>179.691</ele>
        <time>2019-02-28T20:36:06Z</time>
      </trkpt>
      <trkpt lat="43.64248" lon="0.66964">
        <ele>180.468</ele>
        <time>2019-02-28T20:36:26Z</time>
      </trkpt>
      <trkpt lat="43.642" lon="0.66738">
        <ele>192.461</ele>
        <time>2019-02-28T20:36:46Z</time>
      </trkpt>
      <trkpt lat="43.64193" lon="0.66459">
        <ele>207.775</ele>
        <time>2019-02-28T20:37:06Z</time>
      </trkpt>
      <trkpt lat="43.64206" lon="0.66247">
        <ele>231.033</ele>
        <time>2019-02-28T20:37:26Z</time>
      </trkpt>
      <trkpt lat="43.64264" lon="0.66281">
        <ele>230.823</ele>
        <time>2019-02-28T20:37:46Z</time>
      </trkpt>
      <trkpt lat="43.64331" lon="0.66289">
        <ele>233.015</ele>
        <time>2019-02-28T20:38:06Z</time>
      </trkpt>
      <trkpt lat="43.64386" lon="0.66245">
        <ele>233.608</ele>
        <time>2019-02-28T20:38:26Z</time>
      </trkpt>
      <trkpt lat="43.64432" lon="0.66228">
        <ele>233.137</ele>
        <time>2019-02-28T20:38:46Z</time>
      </trkpt>
      <trkpt lat="43.64528" lon="0.66141">
        <ele>234.817</ele>
        <time>2019-02-28T20:39:06Z</time>
      </trkpt>
      <trkpt lat="43.64615" lon="0.66034">
        <ele>234.034</ele>
        <time>2019-02-28T20:39:26Z</time>
      </trkpt>
      <trkpt lat="43.64653" lon="0.65933">
        <ele>231.818</ele>
        <time>2019-02-28T20:39:46Z</time>
      </trkpt>
      <trkpt lat="43.6471" lon="0.65859">
        <ele>231.52</ele>
        <time>2019-02-28T20:40:06Z</time>
      </trkpt>
      <trkpt lat="43.64725" lon="0.65812">
        <ele>231.947</ele>
        <time>2019-02-28T20:40:26Z</time>
      </trkpt>
      <trkpt lat="43.64788" lon="0.65735">
        <ele>230.43</ele>
        <time>2019-02-28T20:40:46Z</time>
      </trkpt>
      <trkpt lat="43.64843" lon="0.65717">
        <ele>221.984</ele>
        <time>2019-02-28T20:41:06Z</time>
      </trkpt>
      <trkpt lat="43.64869" lon="0.65732">
        <ele>215.612</ele>
        <time>2019-02-28T20:41:26Z</time>
      </trkpt>
      <trkpt lat="43.64887" lon="0.6576">
        <ele>211.432</ele>
        <time>2019-02-28T20:41:46Z</time>
      </trkpt>
      <trkpt lat="43.64962" lon="0.65783">
        <ele>210.005</ele>
        <time>2019-02-28T20:42:06Z</time>
      </trkpt>
      <trkpt lat="43.65122" lon="0.65522">
        <ele>219.408</ele>
        <time>2019-02-28T20:42:26Z</time>
      </trkpt>
      <trkpt lat="43.65191" lon="0.65341">
        <ele>226.765</ele>
        <time>2019-02-28T20:42:46Z</time>
      </trkpt>
      <trkpt lat="43.65223" lon="0.6518">
        <ele>231.095</ele>
        <time>2019-02-28T20:43:06Z</time>
      </trkpt>
      <trkpt lat="43.65243" lon="0.65058">
        <ele>234.522</ele>
        <time>2019-02-28T20:43:26Z</time>
      </trkpt>
      <trkpt lat="43.65309" lon="0.64987">
        <ele>232.846</ele>
        <time>2019-02-28T20:43:46Z</time>
      </trkpt>
      <trkpt lat="43.65334" lon="0.64914">
        <ele>232.818</ele>
        <time>2019-02-28T20:44:06Z</time>
      </trkpt>
      <trkpt lat="43.65335" lon="0.64858">
        <ele>228.435</ele>
        <time>2019-02-28T20:44:26Z</time>
      </trkpt>
      <trkpt lat="43.65301" lon="0.64736">
        <ele>219.868</ele>
        <time>2019-02-28T20:45:26Z</time>
      </trkpt>
      <trkpt lat="43.65239" lon="0.64656">
        <ele>213.682</ele>
        <time>2019-02-28T20:45:46Z</time>
      </trkpt>
      <trkpt lat="43.65213" lon="0.6465">
        <ele>212.254</ele>
        <time>2019-02-28T20:46:06Z</time>
      </trkpt>
      <trkpt lat="43.65194" lon="0.64631">
        <ele>211.856</ele>
        <time>2019-02-28T20:46:26Z</time>
      </trkpt>
      <trkpt lat="43.65166" lon="0.64622">
        <ele>206.711</ele>
        <time>2019-12-05T21:13:39Z</time>
      </trkpt>
      <trkpt lat="43.6515" lon="0.6458">
        <ele>206.008</ele>
        <time>2019-12-05T21:13:59Z</time>
      </trkpt>
      <trkpt lat="43.65143" lon="0.64517">
        <ele>203.119</ele>
        <time>2019-12-05T21:14:19Z</time>
      </trkpt>
      <trkpt lat="43.65169" lon="0.64444">
        <ele>198.429</ele>
        <time>2019-12-05T21:14:39Z</time>
      </trkpt>
      <trkpt lat="43.65194" lon="0.64381">
        <ele>191.156</ele>
        <time>2019-12-05T21:14:59Z</time>
      </trkpt>
      <trkpt lat="43.65135" lon="0.64244">
        <ele>171.06</ele>
        <time>2019-12-05T21:15:19Z</time>
      </trkpt>
      <trkpt lat="43.65002" lon="0.64049">
        <ele>145.912</ele>
        <time>2019-12-05T21:15:39Z</time>
      </trkpt>
      <trkpt lat="43.65053" lon="0.63928">
        <ele>145.079</ele>
        <time>2019-12-05T21:15:59Z</time>
      </trkpt>
      <trkpt lat="43.65058" lon="0.63872">
        <ele>145.062</ele>
        <time>2019-12-05T21:16:19Z</time>
      </trkpt>
      <trkpt lat="43.65036" lon="0.63724">
        <ele>145.096</ele>
        <time>2019-12-05T21:16:39Z</time>
      </trkpt>
      <trkpt lat="43.65009" lon="0.63388">
        <ele>170.279</ele>
        <time>2019-12-05T21:16:59Z</time>
      </trkpt>
      <trkpt lat="43.65011" lon="0.63283">
        <ele>180.005</ele>
        <time>2019-12-05T21:17:19Z</time>
      </trkpt>
      <trkpt lat="43.65108" lon="0.63289">
        <ele>172.325</ele>
        <time>2019-12-05T21:17:39Z</time>
      </trkpt>
      <trkpt lat="43.65196" lon="0.63208">
        <ele>164.408</ele>
        <time>2019-12-05T21:17:59Z</time>
      </trkpt>
      <trkpt lat="43.65407" lon="0.63167">
        <ele>150.781</ele>
        <time>2019-12-05T21:18:19Z</time>
      </trkpt>
      <trkpt lat="43.65457" lon="0.63123">
        <ele>146.061</ele>
        <time>2019-12-05T21:18:39Z</time>
      </trkpt>
      <trkpt lat="43.65515" lon="0.63022">
        <ele>140.638</ele>
        <time>2019-12-05T21:18:59Z</time>
      </trkpt>
      <trkpt lat="43.65696" lon="0.62855">
        <ele>145.982</ele>
        <time>2019-12-05T21:19:19Z</time>
      </trkpt>
      <trkpt lat="43.65701" lon="0.62774">
        <ele>146.594</ele>
        <time>2019-12-05T21:19:39Z</time>
      </trkpt>
      <trkpt lat="43.65751" lon="0.6271">
        <ele>144.331</ele>
        <time>2019-12-05T21:19:59Z</time>
      </trkpt>
      <trkpt lat="43.65563" lon="0.61865">
        <ele>182.914</ele>
        <time>2019-12-05T21:20:19Z</time>
      </trkpt>
      <trkpt lat="43.65526" lon="0.61621">
        <ele>188.278</ele>
        <time>2019-12-05T21:20:39Z</time>
      </trkpt>
      <trkpt lat="43.65441" lon="0.61342">
        <ele>169.553</ele>
        <time>2019-12-05T21:20:59Z</time>
      </trkpt>
      <trkpt lat="43.65542" lon="0.61303">
        <ele>172.004</ele>
        <time>2019-12-05T21:21:19Z</time>
      </trkpt>
      <trkpt lat="43.6557" lon="0.6127">
        <ele>175.514</ele>
        <time>2019-12-05T21:21:39Z</time>
      </trkpt>
      <trkpt lat="43.6561" lon="0.61157">
        <ele>177.508</ele>
        <time>2019-12-05T21:21:59Z</time>
      </trkpt>
      <trkpt lat="43.65634" lon="0.6114">
        <ele>180.339</ele>
        <time>2019-12-05T21:22:19Z</time>
      </trkpt>
      <trkpt lat="43.65669" lon="0.61054">
        <ele>184.239</ele>
        <time>2019-12-05T21:22:39Z</time>
      </trkpt>
      <trkpt lat="43.6565" lon="0.61037">
        <ele>182.046</ele>
        <time>2019-12-05T21:22:59Z</time>
      </trkpt>
      <trkpt lat="43.65644" lon="0.61026">
        <ele>181.35</ele>
        <time>2019-12-05T21:23:19Z</time>
      </trkpt>
      <trkpt lat="43.65592" lon="0.60915">
        <ele>173.972</ele>
        <time>2019-12-05T21:23:39Z</time>
      </trkpt>
      <trkpt lat="43.65536" lon="0.6082">
        <ele>167.639</ele>
        <time>2019-12-05T21:23:59Z</time>
      </trkpt>
      <trkpt lat="43.65526" lon="0.60789">
        <ele>168.922</ele>
        <time>2019-12-05T21:24:19Z</time>
      </trkpt>
      <trkpt lat="43.65534" lon="0.60779">
        <ele>169.956</ele>
        <time>2019-12-05T21:24:39Z</time>
      </trkpt>
      <trkpt lat="43.65609" lon="0.60538">
        <ele>155.427</ele>
        <time>2019-12-05T21:24:59Z</time>
      </trkpt>
      <trkpt lat="43.65631" lon="0.60442">
        <ele>149.368</ele>
        <time>2019-12-05T21:25:19Z</time>
      </trkpt>
      <trkpt lat="43.65668" lon="0.60418">
        <ele>149.114</ele>
        <time>2019-12-05T21:25:39Z</time>
      </trkpt>
      <trkpt lat="43.65685" lon="0.60229">
        <ele>139.908</ele>
        <time>2019-12-05T21:25:59Z</time>
      </trkpt>
      <trkpt lat="43.65722" lon="0.59733">
        <ele>129.096</ele>
        <time>2019-12-05T21:26:19Z</time>
      </trkpt>
      <trkpt lat="43.65575" lon="0.59656">
        <ele>128.046</ele>
        <time>2019-12-05T21:26:39Z</time>
      </trkpt>
      <trkpt lat="43.65599" lon="0.59561">
        <ele>127.143</ele>
        <time>2019-12-05T21:26:59Z</time>
      </trkpt>
      <trkpt lat="43.65571" lon="0.59552">
        <ele>127.437</ele>
        <time>2019-12-05T21:27:19Z</time>
      </trkpt>
      <trkpt lat="43.6557" lon="0.59516">
        <ele>127.069</ele>
        <time>2019-12-05T21:27:39Z</time>
      </trkpt>
      <trkpt lat="43.6555" lon="0.59484">
        <ele>127.016</ele>
        <time>2019-12-05T21:27:59Z</time>
      </trkpt>
      <trkpt lat="43.6555" lon="0.59446">
        <ele>127.089</ele>
        <time>2019-12-05T21:28:19Z</time>
      </trkpt>
      <trkpt lat="43.65558" lon="0.59401">
        <ele>126.453</ele>
        <time>2019-12-05T21:28:39Z</time>
      </trkpt>
      <trkpt lat="43.65537" lon="0.59354">
        <ele>126.021</ele>
        <time>2019-12-05T21:28:59Z</time>
      </trkpt>
      <trkpt lat="43.65535" lon="0.59326">
        <ele>126.041</ele>
        <time>2019-12-05T21:29:19Z</time>
      </trkpt>
      <trkpt lat="43.6556" lon="0.5926">
        <ele>126.005</ele>
        <time>2019-12-05T21:29:39Z</time>
      </trkpt>
      <trkpt lat="43.65574" lon="0.59256">
        <ele>126.008</ele>
        <time>2019-12-05T21:29:59Z</time>
      </trkpt>
      <trkpt lat="43.65563" lon="0.59231">
        <ele>125.316</ele>
        <time>2019-12-05T21:30:19Z</time>
      </trkpt>
      <trkpt lat="43.65443" lon="0.59193">
        <ele>126.056</ele>
        <time>2019-12-05T21:30:39Z</time>
      </trkpt>
      <trkpt lat="43.65382" lon="0.59162">
        <ele>126.073</ele>
        <time>2019-12-05T21:30:59Z</time>
      </trkpt>
      <trkpt lat="43.65332" lon="0.59133">
        <ele>126.027</ele>
        <time>2019-12-05T21:31:19Z</time>
      </trkpt>
      <trkpt lat="43.65275" lon="0.59119">
        <ele>126.069</ele>
        <time>2019-12-05T21:31:39Z</time>
      </trkpt>
      <trkpt lat="43.65214" lon="0.59117">
        <ele>126.086</ele>
        <time>2019-12-05T21:31:59Z</time>
      </trkpt>
      <trkpt lat="43.65102" lon="0.59143">
        <ele>126.049</ele>
        <time>2019-12-05T21:32:19Z</time>
      </trkpt>
      <trkpt lat="43.65067" lon="0.59145">
        <ele>126.033</ele>
        <time>2019-12-05T21:32:39Z</time>
      </trkpt>
      <trkpt lat="43.65009" lon="0.59132">
        <ele>126.233</ele>
        <time>2019-12-05T21:32:59Z</time>
      </trkpt>
      <trkpt lat="43.64926" lon="0.59055">
        <ele>126.323</ele>
        <time>2019-12-05T21:33:19Z</time>
      </trkpt>
      <trkpt lat="43.6488" lon="0.59026">
        <ele>126.015</ele>
        <time>2019-12-05T21:33:39Z</time>
      </trkpt>
      <trkpt lat="43.64898" lon="0.58954">
        <ele>128.208</ele>
        <time>2019-12-05T21:33:59Z</time>
      </trkpt>
      <trkpt lat="43.64884" lon="0.58929">
        <ele>128.997</ele>
        <time>2019-12-05T21:34:19Z</time>
      </trkpt>
      <trkpt lat="43.64729" lon="0.58865">
        <ele>127.867</ele>
        <time>2019-12-05T21:34:39Z</time>
      </trkpt>
      <trkpt lat="43.64736" lon="0.58856">
        <ele>128.254</ele>
        <time>2019-12-05T21:34:59Z</time>
      </trkpt>
      <trkpt lat="43.64758" lon="0.58758">
        <ele>140.328</ele>
        <time>2019-12-05T21:35:19Z</time>
      </trkpt>
      <trkpt lat="43.64742" lon="0.58746">
        <ele>139.28</ele>
        <time>2019-12-05T21:35:39Z</time>
      </trkpt>
      <trkpt lat="43.64706" lon="0.58743">
        <ele>137.077</ele>
        <time>2019-12-05T21:35:59Z</time>
      </trkpt>
      <trkpt lat="43.64702" lon="0.58723">
        <ele>141.01</ele>
        <time>2019-12-05T21:36:19Z</time>
      </trkpt>
      <trkpt lat="43.64709" lon="0.58652">
        <ele>146.884</ele>
        <time>2019-12-05T21:36:39Z</time>
      </trkpt>
    </trkseg>
  </trk>
</gpx>